Main page
METAR-TAF:

METAR-TAF

Airports :

Roland Garros Airport

Saint-Denis, Réunion

latitude: 20-53S, longitude: 055-31E, elevation: 21 m

Current weather observation

The report was made 23 minutes ago, at 20:00 UTC
Wind 12 kt from the Southeast
Temperature 21°C
Humidity 69%
Pressure 1024 hPa
Visibility 10 km or more
no clouds below 1500 m and no cumulonimbus

METAR: FMEE 182000Z AUTO 13012KT CAVOK 21/15 Q1024 NOSIG

Time: 00:23 (20:23 UTC)

Forecast

The report was made 3 hours and 23 minutes ago, at 17:00 UTC
Forecast valid from 18 at 18 UTC to 19 at 24 UTC
Wind 10 kt from the Southeast
Visibility 10 km or more
Few clouds at a height of 2000 ft
Temporary
from 19 at 06 UTC to 19 at 16 UTC
Wind 20 kt from the East with gusts up to 30 kt

TAF: FMEE 181700Z 1818/1924 14010KT 9999 FEW020 TEMPO 1906/1916 10020G30KT

Weather observations and forecasts of more than 4000 airports (METAR and TAF reports).

The available stations are represented by yellow and red dots on the map.

Hover mouse over dot to see the name of the station.

Then click to see weather observations and forecasts.

To change the map : click on the green buttons with a black cross to zoom in, on the green button with a dash to zoom out, or on the green arrows for adjacent maps.


METAR-TAF: